This is the latest recevied weather packets stored in our database for station/object SV9TNF-2. If no packets are shown the sender has not sent any weather packets the latest 1 day(s).
| Time | Temp. | Humidity | Pressure | Rain* | Wind** | Luminosity | Snow |
|---|---|---|---|---|---|---|---|
| 1778090736 | 17.22° C | 80% | 1023 hPa | 0 mm | 5.36 m/s, 204° | - | - |
| 1778090136 | 17.78° C | 77% | 1023 hPa | 0 mm | 4.92 m/s, 181° | - | - |
| 1778089836 | 18.33° C | 75% | 1023 hPa | 0 mm | 3.13 m/s, 221° | - | - |
| 1778089536 | 18.33° C | 75% | 1023 hPa | 0 mm | 4.47 m/s, 180° | - | - |
| 1778088936 | 18.33° C | 74% | 1022.7 hPa | 0 mm | 2.24 m/s, 207° | - | - |
| 1778084134 | 22.78° C | 64% | 1022.7 hPa | 0 mm | 0 m/s | - | - |
| 1778083834 | 22.22° C | 63% | 1022.7 hPa | 0 mm | 0 m/s | - | - |
| 1778083534 | 22.78° C | 64% | 1022.7 hPa | 0 mm | 0 m/s | - | - |
| 1778082334 | 21.67° C | 67% | 1022.7 hPa | 0 mm | 0.89 m/s, 30° | - | - |
| 1778082034 | 22.22° C | 67% | 1022.7 hPa | 0 mm | 0 m/s | - | - |
| 1778081734 | 22.78° C | 64% | 1022.7 hPa | 0 mm | 0 m/s | - | - |
| 1778081433 | 22.78° C | 66% | 1022.7 hPa | 0 mm | 0 m/s | - | - |
| 1778080833 | 22.22° C | 66% | 1022.7 hPa | 0 mm | 0.45 m/s, 108° | - | - |
| 1778080533 | 21.67° C | 65% | 1022.7 hPa | 0 mm | 0 m/s | - | - |
| 1778078132 | 23.33° C | 58% | 1023 hPa | 0 mm | 1.79 m/s, 284° | - | - |
| 1778077832 | 22.78° C | 60% | 1023 hPa | 0 mm | 0 m/s | - | - |
| 1778077232 | 22.78° C | 60% | 1023 hPa | 0 mm | 1.79 m/s, 80° | - | - |
| 1778076332 | 22.78° C | 60% | 1023 hPa | 0 mm | 1.79 m/s, 0° | - | - |
| 1778075731 | 22.78° C | 62% | 1023 hPa | 0 mm | 1.79 m/s, 14° | - | - |
| 1778075131 | 22.78° C | 57% | 1023 hPa | 0 mm | 1.79 m/s, 61° | - | - |
| 1778074831 | 22.22° C | 59% | 1023 hPa | 0 mm | 3.13 m/s, 76° | - | - |
| 1778074531 | 22.78° C | 59% | 1023 hPa | 0 mm | 1.34 m/s, 90° | - | - |
| 1778071830 | 22.78° C | 50% | 1023 hPa | 0 mm | 3.58 m/s, 82° | - | - |
| 1778071530 | 22.78° C | 50% | 1023 hPa | 0 mm | 3.13 m/s, 80° | - | - |
| 1778068229 | 23.33° C | 42% | 1023.4 hPa | 0 mm | 3.13 m/s, 68° | - | - |
* Rain latest hour (hover to see other rain measurements)
** Current wind speed in m/s (hover to see current wind gust speed)